sensor_id;sensor_type;location;lat;lon;timestamp;temperature;humidity
939;DHT22;456;53.584;9.968;2023-11-19T00:01:34;17.70;25.30
939;DHT22;456;53.584;9.968;2023-11-19T00:03:59;17.60;25.20
939;DHT22;456;53.584;9.968;2023-11-19T00:06:25;17.70;25.20
939;DHT22;456;53.584;9.968;2023-11-19T00:08:51;17.70;25.20
939;DHT22;456;53.584;9.968;2023-11-19T00:11:17;17.70;25.10
939;DHT22;456;53.584;9.968;2023-11-19T00:13:42;17.70;25.10
939;DHT22;456;53.584;9.968;2023-11-19T00:16:08;17.60;25.10
939;DHT22;456;53.584;9.968;2023-11-19T00:18:35;17.60;25.10
939;DHT22;456;53.584;9.968;2023-11-19T00:21:01;17.60;25.10
939;DHT22;456;53.584;9.968;2023-11-19T00:23:28;17.60;25.20
939;DHT22;456;53.584;9.968;2023-11-19T00:25:53;17.60;25.20
939;DHT22;456;53.584;9.968;2023-11-19T00:28:19;17.60;25.40
939;DHT22;456;53.584;9.968;2023-11-19T00:30:44;17.60;25.30
939;DHT22;456;53.584;9.968;2023-11-19T00:33:10;17.60;25.20
939;DHT22;456;53.584;9.968;2023-11-19T00:35:36;17.60;25.40
939;DHT22;456;53.584;9.968;2023-11-19T00:38:02;17.60;25.40
939;DHT22;456;53.584;9.968;2023-11-19T00:40:29;17.60;25.40
939;DHT22;456;53.584;9.968;2023-11-19T00:42:55;17.60;25.30
939;DHT22;456;53.584;9.968;2023-11-19T00:45:20;17.60;25.30
939;DHT22;456;53.584;9.968;2023-11-19T00:47:46;17.60;25.20
939;DHT22;456;53.584;9.968;2023-11-19T00:50:12;17.60;25.20
939;DHT22;456;53.584;9.968;2023-11-19T00:52:38;17.60;25.40
939;DHT22;456;53.584;9.968;2023-11-19T00:55:04;17.60;25.30
939;DHT22;456;53.584;9.968;2023-11-19T00:57:31;17.60;25.20
939;DHT22;456;53.584;9.968;2023-11-19T00:59:58;17.60;25.20
939;DHT22;456;53.584;9.968;2023-11-19T01:02:24;17.60;25.30
939;DHT22;456;53.584;9.968;2023-11-19T01:04:50;17.60;25.30
939;DHT22;456;53.584;9.968;2023-11-19T01:07:15;17.60;25.40
939;DHT22;456;53.584;9.968;2023-11-19T01:09:44;17.60;25.40
939;DHT22;456;53.584;9.968;2023-11-19T01:12:10;17.60;25.40
939;DHT22;456;53.584;9.968;2023-11-19T01:14:35;17.60;25.30
939;DHT22;456;53.584;9.968;2023-11-19T01:17:01;17.60;25.40
939;DHT22;456;53.584;9.968;2023-11-19T01:19:27;17.60;25.40
939;DHT22;456;53.584;9.968;2023-11-19T01:21:54;17.60;25.50
939;DHT22;456;53.584;9.968;2023-11-19T01:24:19;17.60;25.20
939;DHT22;456;53.584;9.968;2023-11-19T01:26:46;17.60;25.50
939;DHT22;456;53.584;9.968;2023-11-19T01:29:13;17.60;25.30
939;DHT22;456;53.584;9.968;2023-11-19T01:31:42;17.60;25.40
939;DHT22;456;53.584;9.968;2023-11-19T01:34:08;17.50;25.20
939;DHT22;456;53.584;9.968;2023-11-19T01:36:33;17.50;25.30
939;DHT22;456;53.584;9.968;2023-11-19T01:38:59;17.50;25.30
939;DHT22;456;53.584;9.968;2023-11-19T01:41:25;17.50;25.20
939;DHT22;456;53.584;9.968;2023-11-19T01:43:50;17.50;25.40
939;DHT22;456;53.584;9.968;2023-11-19T01:46:16;17.50;25.30
939;DHT22;456;53.584;9.968;2023-11-19T01:48:45;17.50;25.40
939;DHT22;456;53.584;9.968;2023-11-19T01:51:12;17.50;25.90
939;DHT22;456;53.584;9.968;2023-11-19T01:53:39;17.50;25.40
939;DHT22;456;53.584;9.968;2023-11-19T01:56:07;17.50;25.40
939;DHT22;456;53.584;9.968;2023-11-19T01:58:36;17.50;25.40
939;DHT22;456;53.584;9.968;2023-11-19T02:01:01;17.50;25.50
939;DHT22;456;53.584;9.968;2023-11-19T02:03:31;17.50;25.40
939;DHT22;456;53.584;9.968;2023-11-19T02:05:58;17.50;25.40
939;DHT22;456;53.584;9.968;2023-11-19T02:08:24;17.50;25.40
939;DHT22;456;53.584;9.968;2023-11-19T02:10:49;17.50;25.50
939;DHT22;456;53.584;9.968;2023-11-19T02:13:15;17.50;25.60
939;DHT22;456;53.584;9.968;2023-11-19T02:15:41;17.50;25.60
939;DHT22;456;53.584;9.968;2023-11-19T02:18:20;17.50;25.50
939;DHT22;456;53.584;9.968;2023-11-19T02:20:48;17.50;25.40
939;DHT22;456;53.584;9.968;2023-11-19T02:23:13;17.50;25.50
939;DHT22;456;53.584;9.968;2023-11-19T02:25:40;17.50;25.50
939;DHT22;456;53.584;9.968;2023-11-19T02:28:06;17.50;25.50
939;DHT22;456;53.584;9.968;2023-11-19T02:30:32;17.50;25.50
939;DHT22;456;53.584;9.968;2023-11-19T02:33:01;17.50;25.60
939;DHT22;456;53.584;9.968;2023-11-19T02:35:31;17.50;25.50
939;DHT22;456;53.584;9.968;2023-11-19T02:37:57;17.50;25.40
939;DHT22;456;53.584;9.968;2023-11-19T02:40:24;17.50;25.50
939;DHT22;456;53.584;9.968;2023-11-19T02:42:50;17.50;25.70
939;DHT22;456;53.584;9.968;2023-11-19T02:45:16;17.50;25.60
939;DHT22;456;53.584;9.968;2023-11-19T02:47:43;17.50;25.60
939;DHT22;456;53.584;9.968;2023-11-19T02:50:10;17.50;25.50
939;DHT22;456;53.584;9.968;2023-11-19T02:52:43;17.50;25.50
939;DHT22;456;53.584;9.968;2023-11-19T02:55:12;17.50;25.50
939;DHT22;456;53.584;9.968;2023-11-19T02:57:42;17.50;25.60
939;DHT22;456;53.584;9.968;2023-11-19T03:00:21;17.50;25.60
939;DHT22;456;53.584;9.968;2023-11-19T03:02:51;17.50;25.70
939;DHT22;456;53.584;9.968;2023-11-19T03:05:26;17.50;25.60
939;DHT22;456;53.584;9.968;2023-11-19T03:07:52;17.50;25.60
939;DHT22;456;53.584;9.968;2023-11-19T03:10:17;17.50;25.70
939;DHT22;456;53.584;9.968;2023-11-19T03:12:44;17.40;25.70
939;DHT22;456;53.584;9.968;2023-11-19T03:15:11;17.40;25.70
939;DHT22;456;53.584;9.968;2023-11-19T03:17:40;17.50;25.70
939;DHT22;456;53.584;9.968;2023-11-19T03:20:07;17.50;25.70
939;DHT22;456;53.584;9.968;2023-11-19T03:22:39;17.50;25.80
939;DHT22;456;53.584;9.968;2023-11-19T03:25:07;17.50;25.80
939;DHT22;456;53.584;9.968;2023-11-19T03:27:37;17.50;25.80
939;DHT22;456;53.584;9.968;2023-11-19T03:30:04;17.50;26.00
939;DHT22;456;53.584;9.968;2023-11-19T03:32:31;17.40;25.70
939;DHT22;456;53.584;9.968;2023-11-19T03:34:58;17.40;25.90
939;DHT22;456;53.584;9.968;2023-11-19T03:37:25;17.50;25.80
939;DHT22;456;53.584;9.968;2023-11-19T03:39:51;17.40;25.80
939;DHT22;456;53.584;9.968;2023-11-19T03:42:19;17.40;25.90
939;DHT22;456;53.584;9.968;2023-11-19T03:44:46;17.40;25.90
939;DHT22;456;53.584;9.968;2023-11-19T03:47:11;17.40;25.90
939;DHT22;456;53.584;9.968;2023-11-19T03:49:37;17.40;25.90
939;DHT22;456;53.584;9.968;2023-11-19T03:52:02;17.40;26.00
939;DHT22;456;53.584;9.968;2023-11-19T03:54:28;17.40;26.00
939;DHT22;456;53.584;9.968;2023-11-19T03:56:54;17.40;26.00
939;DHT22;456;53.584;9.968;2023-11-19T03:59:19;17.40;26.10
939;DHT22;456;53.584;9.968;2023-11-19T04:01:46;17.40;26.10
939;DHT22;456;53.584;9.968;2023-11-19T04:04:11;17.40;26.10
939;DHT22;456;53.584;9.968;2023-11-19T04:06:37;17.40;26.20
939;DHT22;456;53.584;9.968;2023-11-19T04:09:03;17.40;26.20
939;DHT22;456;53.584;9.968;2023-11-19T04:11:28;17.40;26.30
939;DHT22;456;53.584;9.968;2023-11-19T04:13:54;17.40;26.40
939;DHT22;456;53.584;9.968;2023-11-19T04:16:26;17.40;26.40
939;DHT22;456;53.584;9.968;2023-11-19T04:18:53;17.40;26.30
939;DHT22;456;53.584;9.968;2023-11-19T04:21:18;17.40;26.40
939;DHT22;456;53.584;9.968;2023-11-19T04:23:44;17.40;26.50
939;DHT22;456;53.584;9.968;2023-11-19T04:26:10;17.40;26.50
939;DHT22;456;53.584;9.968;2023-11-19T04:28:35;17.40;26.60
939;DHT22;456;53.584;9.968;2023-11-19T04:31:01;17.40;26.60
939;DHT22;456;53.584;9.968;2023-11-19T04:33:27;17.40;26.70
939;DHT22;456;53.584;9.968;2023-11-19T04:35:53;17.40;26.70
939;DHT22;456;53.584;9.968;2023-11-19T04:38:18;17.40;26.80
939;DHT22;456;53.584;9.968;2023-11-19T04:40:44;17.40;26.80
939;DHT22;456;53.584;9.968;2023-11-19T04:43:10;17.40;26.80
939;DHT22;456;53.584;9.968;2023-11-19T04:45:35;17.40;26.90
939;DHT22;456;53.584;9.968;2023-11-19T04:48:02;17.40;26.90
939;DHT22;456;53.584;9.968;2023-11-19T04:50:27;17.40;26.90
939;DHT22;456;53.584;9.968;2023-11-19T04:52:53;17.40;27.00
939;DHT22;456;53.584;9.968;2023-11-19T04:55:19;17.40;27.10
939;DHT22;456;53.584;9.968;2023-11-19T04:57:45;17.40;27.10
939;DHT22;456;53.584;9.968;2023-11-19T05:00:11;17.40;27.10
939;DHT22;456;53.584;9.968;2023-11-19T05:02:37;17.40;27.20
939;DHT22;456;53.584;9.968;2023-11-19T05:05:03;17.40;27.30
939;DHT22;456;53.584;9.968;2023-11-19T05:07:31;17.40;27.30
939;DHT22;456;53.584;9.968;2023-11-19T05:09:57;17.40;27.40
939;DHT22;456;53.584;9.968;2023-11-19T05:12:23;17.40;27.50
939;DHT22;456;53.584;9.968;2023-11-19T05:14:48;17.40;27.50
939;DHT22;456;53.584;9.968;2023-11-19T05:17:17;17.40;27.60
939;DHT22;456;53.584;9.968;2023-11-19T05:19:43;17.40;27.50
939;DHT22;456;53.584;9.968;2023-11-19T05:22:09;17.40;27.50
939;DHT22;456;53.584;9.968;2023-11-19T05:24:34;17.40;27.50
939;DHT22;456;53.584;9.968;2023-11-19T05:27:01;17.40;27.50
939;DHT22;456;53.584;9.968;2023-11-19T05:29:27;17.40;27.50
939;DHT22;456;53.584;9.968;2023-11-19T05:31:53;17.40;27.50
939;DHT22;456;53.584;9.968;2023-11-19T05:34:20;17.40;27.70
939;DHT22;456;53.584;9.968;2023-11-19T05:36:46;17.40;27.70
939;DHT22;456;53.584;9.968;2023-11-19T05:39:12;17.40;27.90
939;DHT22;456;53.584;9.968;2023-11-19T05:41:37;17.40;28.00
939;DHT22;456;53.584;9.968;2023-11-19T05:44:03;17.40;28.00
939;DHT22;456;53.584;9.968;2023-11-19T05:46:29;17.40;28.20
939;DHT22;456;53.584;9.968;2023-11-19T05:48:54;17.40;28.30
939;DHT22;456;53.584;9.968;2023-11-19T05:51:20;17.40;28.40
939;DHT22;456;53.584;9.968;2023-11-19T05:53:45;17.40;28.40
939;DHT22;456;53.584;9.968;2023-11-19T05:56:11;17.40;28.40
939;DHT22;456;53.584;9.968;2023-11-19T05:58:37;17.40;28.40
939;DHT22;456;53.584;9.968;2023-11-19T06:01:05;17.40;28.20
939;DHT22;456;53.584;9.968;2023-11-19T06:03:32;17.50;27.80
939;DHT22;456;53.584;9.968;2023-11-19T06:05:58;17.50;27.60
939;DHT22;456;53.584;9.968;2023-11-19T06:08:24;17.60;27.70
939;DHT22;456;53.584;9.968;2023-11-19T06:10:52;17.60;27.70
939;DHT22;456;53.584;9.968;2023-11-19T06:13:18;17.70;27.80
939;DHT22;456;53.584;9.968;2023-11-19T06:15:44;17.70;27.80
939;DHT22;456;53.584;9.968;2023-11-19T06:18:10;17.70;27.80
939;DHT22;456;53.584;9.968;2023-11-19T06:20:40;17.80;27.90
939;DHT22;456;53.584;9.968;2023-11-19T06:23:06;17.80;27.80
939;DHT22;456;53.584;9.968;2023-11-19T06:25:32;17.80;27.80
939;DHT22;456;53.584;9.968;2023-11-19T06:27:58;17.90;27.90
939;DHT22;456;53.584;9.968;2023-11-19T06:30:24;17.90;27.90
939;DHT22;456;53.584;9.968;2023-11-19T06:32:50;17.90;27.90
939;DHT22;456;53.584;9.968;2023-11-19T06:35:16;17.90;27.90
939;DHT22;456;53.584;9.968;2023-11-19T06:37:42;17.90;27.90
939;DHT22;456;53.584;9.968;2023-11-19T06:40:09;17.90;27.90
939;DHT22;456;53.584;9.968;2023-11-19T06:42:35;17.90;27.90
939;DHT22;456;53.584;9.968;2023-11-19T06:45:01;17.90;27.90
939;DHT22;456;53.584;9.968;2023-11-19T06:47:27;17.90;27.90
939;DHT22;456;53.584;9.968;2023-11-19T06:49:54;17.90;27.90
939;DHT22;456;53.584;9.968;2023-11-19T06:52:20;17.90;27.90
939;DHT22;456;53.584;9.968;2023-11-19T06:54:46;17.90;27.90
939;DHT22;456;53.584;9.968;2023-11-19T06:57:12;17.90;28.00
939;DHT22;456;53.584;9.968;2023-11-19T06:59:38;17.90;27.90
939;DHT22;456;53.584;9.968;2023-11-19T07:02:03;17.90;27.90
939;DHT22;456;53.584;9.968;2023-11-19T07:04:30;17.90;28.40
939;DHT22;456;53.584;9.968;2023-11-19T07:06:56;17.90;27.90
939;DHT22;456;53.584;9.968;2023-11-19T07:09:21;17.90;27.90
939;DHT22;456;53.584;9.968;2023-11-19T07:11:48;17.90;28.00
939;DHT22;456;53.584;9.968;2023-11-19T07:14:15;17.90;27.90
939;DHT22;456;53.584;9.968;2023-11-19T07:16:43;17.90;27.90
939;DHT22;456;53.584;9.968;2023-11-19T07:19:08;17.90;27.90
939;DHT22;456;53.584;9.968;2023-11-19T07:21:35;17.90;27.90
939;DHT22;456;53.584;9.968;2023-11-19T07:24:04;17.90;27.90
939;DHT22;456;53.584;9.968;2023-11-19T07:26:30;18.00;28.00
939;DHT22;456;53.584;9.968;2023-11-19T07:28:55;17.90;27.90
939;DHT22;456;53.584;9.968;2023-11-19T07:31:21;17.90;27.90
939;DHT22;456;53.584;9.968;2023-11-19T07:33:47;17.90;27.90
939;DHT22;456;53.584;9.968;2023-11-19T07:36:13;17.90;27.90
939;DHT22;456;53.584;9.968;2023-11-19T07:38:39;17.90;27.90
939;DHT22;456;53.584;9.968;2023-11-19T07:41:05;17.90;27.90
939;DHT22;456;53.584;9.968;2023-11-19T07:43:32;17.90;27.90
939;DHT22;456;53.584;9.968;2023-11-19T07:45:57;17.90;27.90
939;DHT22;456;53.584;9.968;2023-11-19T07:48:25;18.00;28.00
939;DHT22;456;53.584;9.968;2023-11-19T07:50:52;18.00;28.00
939;DHT22;456;53.584;9.968;2023-11-19T07:53:17;18.00;28.10
939;DHT22;456;53.584;9.968;2023-11-19T07:55:43;18.00;28.00
939;DHT22;456;53.584;9.968;2023-11-19T07:58:10;18.00;28.10
939;DHT22;456;53.584;9.968;2023-11-19T08:00:35;18.00;28.00
939;DHT22;456;53.584;9.968;2023-11-19T08:03:01;18.00;28.00
939;DHT22;456;53.584;9.968;2023-11-19T08:05:27;18.00;28.50
939;DHT22;456;53.584;9.968;2023-11-19T08:07:52;18.00;28.20
939;DHT22;456;53.584;9.968;2023-11-19T08:10:19;18.00;28.20
939;DHT22;456;53.584;9.968;2023-11-19T08:12:44;18.00;28.20
939;DHT22;456;53.584;9.968;2023-11-19T08:15:10;18.00;28.20
939;DHT22;456;53.584;9.968;2023-11-19T08:17:36;18.00;28.20
939;DHT22;456;53.584;9.968;2023-11-19T08:20:02;18.00;28.30
939;DHT22;456;53.584;9.968;2023-11-19T08:22:30;18.00;28.20
939;DHT22;456;53.584;9.968;2023-11-19T08:24:56;18.00;28.20
939;DHT22;456;53.584;9.968;2023-11-19T08:27:21;18.00;28.30
939;DHT22;456;53.584;9.968;2023-11-19T08:29:53;18.00;28.20
939;DHT22;456;53.584;9.968;2023-11-19T08:32:21;18.00;28.20
939;DHT22;456;53.584;9.968;2023-11-19T08:34:46;18.00;28.20
939;DHT22;456;53.584;9.968;2023-11-19T08:37:12;18.00;28.30
939;DHT22;456;53.584;9.968;2023-11-19T08:39:38;18.00;28.30
939;DHT22;456;53.584;9.968;2023-11-19T08:42:04;18.00;28.30
939;DHT22;456;53.584;9.968;2023-11-19T08:44:29;18.00;28.30
939;DHT22;456;53.584;9.968;2023-11-19T08:46:55;18.00;28.30
939;DHT22;456;53.584;9.968;2023-11-19T08:49:21;18.00;28.30
939;DHT22;456;53.584;9.968;2023-11-19T08:51:46;18.00;28.30
939;DHT22;456;53.584;9.968;2023-11-19T08:54:12;18.00;28.40
939;DHT22;456;53.584;9.968;2023-11-19T08:56:38;18.00;28.30
939;DHT22;456;53.584;9.968;2023-11-19T08:59:05;18.00;28.60
939;DHT22;456;53.584;9.968;2023-11-19T09:01:30;18.00;28.50
939;DHT22;456;53.584;9.968;2023-11-19T09:03:56;18.00;28.50
939;DHT22;456;53.584;9.968;2023-11-19T09:06:21;18.00;28.40
939;DHT22;456;53.584;9.968;2023-11-19T09:08:47;18.00;28.40
939;DHT22;456;53.584;9.968;2023-11-19T09:11:13;18.00;28.30
939;DHT22;456;53.584;9.968;2023-11-19T09:13:38;18.00;28.30
939;DHT22;456;53.584;9.968;2023-11-19T09:16:04;18.00;28.30
939;DHT22;456;53.584;9.968;2023-11-19T09:18:30;18.00;28.40
939;DHT22;456;53.584;9.968;2023-11-19T09:20:57;18.00;28.50
939;DHT22;456;53.584;9.968;2023-11-19T09:23:23;18.00;28.50
939;DHT22;456;53.584;9.968;2023-11-19T09:25:50;18.00;28.50
939;DHT22;456;53.584;9.968;2023-11-19T09:28:16;18.00;28.50
939;DHT22;456;53.584;9.968;2023-11-19T09:30:41;18.00;28.50
939;DHT22;456;53.584;9.968;2023-11-19T09:33:07;18.00;28.50
939;DHT22;456;53.584;9.968;2023-11-19T09:35:32;18.00;28.50
939;DHT22;456;53.584;9.968;2023-11-19T09:37:58;18.00;28.60
939;DHT22;456;53.584;9.968;2023-11-19T09:40:24;18.00;28.50
939;DHT22;456;53.584;9.968;2023-11-19T09:42:50;18.00;28.50
939;DHT22;456;53.584;9.968;2023-11-19T09:45:16;18.00;28.50
939;DHT22;456;53.584;9.968;2023-11-19T09:47:44;18.00;28.50
939;DHT22;456;53.584;9.968;2023-11-19T09:50:19;18.00;28.50
939;DHT22;456;53.584;9.968;2023-11-19T09:52:48;18.00;28.50
939;DHT22;456;53.584;9.968;2023-11-19T09:55:14;18.00;28.50
939;DHT22;456;53.584;9.968;2023-11-19T09:57:40;18.00;28.60
939;DHT22;456;53.584;9.968;2023-11-19T10:00:07;18.00;28.50
939;DHT22;456;53.584;9.968;2023-11-19T10:02:34;18.00;28.60
939;DHT22;456;53.584;9.968;2023-11-19T10:05:06;18.00;28.60
939;DHT22;456;53.584;9.968;2023-11-19T10:07:32;18.00;28.50
939;DHT22;456;53.584;9.968;2023-11-19T10:10:00;18.00;28.80
939;DHT22;456;53.584;9.968;2023-11-19T10:12:27;18.00;28.80
939;DHT22;456;53.584;9.968;2023-11-19T10:14:54;18.00;28.70
939;DHT22;456;53.584;9.968;2023-11-19T10:17:21;18.00;28.60
939;DHT22;456;53.584;9.968;2023-11-19T10:19:47;18.00;28.60
939;DHT22;456;53.584;9.968;2023-11-19T10:22:12;18.00;28.60
939;DHT22;456;53.584;9.968;2023-11-19T10:24:40;18.00;28.70
939;DHT22;456;53.584;9.968;2023-11-19T10:27:09;18.00;28.70
939;DHT22;456;53.584;9.968;2023-11-19T10:29:37;18.00;28.70
939;DHT22;456;53.584;9.968;2023-11-19T10:32:03;18.00;28.70
939;DHT22;456;53.584;9.968;2023-11-19T10:34:29;18.00;28.70
939;DHT22;456;53.584;9.968;2023-11-19T10:36:55;18.10;28.70
939;DHT22;456;53.584;9.968;2023-11-19T10:39:21;18.00;28.60
939;DHT22;456;53.584;9.968;2023-11-19T10:41:49;18.00;28.70
939;DHT22;456;53.584;9.968;2023-11-19T10:44:34;18.00;29.30
939;DHT22;456;53.584;9.968;2023-11-19T10:47:06;18.00;28.80
939;DHT22;456;53.584;9.968;2023-11-19T10:49:33;18.00;28.70
939;DHT22;456;53.584;9.968;2023-11-19T10:52:01;18.00;28.80
939;DHT22;456;53.584;9.968;2023-11-19T10:54:28;18.00;28.70
939;DHT22;456;53.584;9.968;2023-11-19T10:56:59;18.00;28.80
939;DHT22;456;53.584;9.968;2023-11-19T10:59:30;18.00;28.70
939;DHT22;456;53.584;9.968;2023-11-19T11:01:56;18.00;28.80
939;DHT22;456;53.584;9.968;2023-11-19T11:04:25;18.00;29.30
939;DHT22;456;53.584;9.968;2023-11-19T11:06:54;18.00;28.80
939;DHT22;456;53.584;9.968;2023-11-19T11:09:22;18.00;28.80
939;DHT22;456;53.584;9.968;2023-11-19T11:11:50;18.00;28.80
939;DHT22;456;53.584;9.968;2023-11-19T11:14:18;18.00;28.80
939;DHT22;456;53.584;9.968;2023-11-19T11:16:46;18.00;28.80
939;DHT22;456;53.584;9.968;2023-11-19T11:19:15;18.00;28.80
939;DHT22;456;53.584;9.968;2023-11-19T11:21:45;18.00;28.80
939;DHT22;456;53.584;9.968;2023-11-19T11:24:37;18.00;28.80
939;DHT22;456;53.584;9.968;2023-11-19T11:27:30;18.00;28.90
939;DHT22;456;53.584;9.968;2023-11-19T11:32:54;18.00;28.90
939;DHT22;456;53.584;9.968;2023-11-19T11:35:34;18.00;29.00
939;DHT22;456;53.584;9.968;2023-11-19T11:38:08;18.00;29.00
939;DHT22;456;53.584;9.968;2023-11-19T11:40:34;18.00;28.90
939;DHT22;456;53.584;9.968;2023-11-19T11:43:01;18.00;29.00
939;DHT22;456;53.584;9.968;2023-11-19T11:45:40;18.00;28.90
939;DHT22;456;53.584;9.968;2023-11-19T11:48:15;18.00;29.00
939;DHT22;456;53.584;9.968;2023-11-19T11:50:53;18.00;29.00
939;DHT22;456;53.584;9.968;2023-11-19T11:53:20;18.00;29.50
939;DHT22;456;53.584;9.968;2023-11-19T11:58:29;18.00;29.20
939;DHT22;456;53.584;9.968;2023-11-19T12:00:57;18.00;29.20
939;DHT22;456;53.584;9.968;2023-11-19T12:03:23;18.00;29.20
939;DHT22;456;53.584;9.968;2023-11-19T12:05:49;18.00;29.20
939;DHT22;456;53.584;9.968;2023-11-19T12:08:19;18.00;29.20
939;DHT22;456;53.584;9.968;2023-11-19T12:10:56;18.00;29.10
939;DHT22;456;53.584;9.968;2023-11-19T12:13:42;18.00;29.20
939;DHT22;456;53.584;9.968;2023-11-19T12:16:09;18.00;29.10
939;DHT22;456;53.584;9.968;2023-11-19T12:18:36;18.00;29.10
939;DHT22;456;53.584;9.968;2023-11-19T12:21:03;18.10;29.10
939;DHT22;456;53.584;9.968;2023-11-19T12:23:31;18.00;29.10
939;DHT22;456;53.584;9.968;2023-11-19T12:25:58;18.00;29.20
939;DHT22;456;53.584;9.968;2023-11-19T12:28:24;18.10;29.30
939;DHT22;456;53.584;9.968;2023-11-19T12:30:52;18.10;29.30
939;DHT22;456;53.584;9.968;2023-11-19T12:33:19;18.00;29.30
939;DHT22;456;53.584;9.968;2023-11-19T12:35:46;18.00;29.20
939;DHT22;456;53.584;9.968;2023-11-19T12:38:23;18.00;29.20
939;DHT22;456;53.584;9.968;2023-11-19T12:41:08;18.00;29.30
939;DHT22;456;53.584;9.968;2023-11-19T12:43:36;18.00;29.30
939;DHT22;456;53.584;9.968;2023-11-19T12:46:16;18.00;29.20
939;DHT22;456;53.584;9.968;2023-11-19T12:48:42;18.10;29.30
939;DHT22;456;53.584;9.968;2023-11-19T12:51:07;18.10;29.30
939;DHT22;456;53.584;9.968;2023-11-19T12:53:56;18.10;29.30
939;DHT22;456;53.584;9.968;2023-11-19T12:56:24;18.10;29.30
939;DHT22;456;53.584;9.968;2023-11-19T12:58:50;18.10;29.30
939;DHT22;456;53.584;9.968;2023-11-19T13:01:20;18.10;29.30
939;DHT22;456;53.584;9.968;2023-11-19T13:03:46;18.10;29.30
939;DHT22;456;53.584;9.968;2023-11-19T13:06:13;18.10;29.90
939;DHT22;456;53.584;9.968;2023-11-19T13:08:41;18.10;29.30
939;DHT22;456;53.584;9.968;2023-11-19T13:11:07;18.10;29.30
939;DHT22;456;53.584;9.968;2023-11-19T13:13:53;18.10;29.40
939;DHT22;456;53.584;9.968;2023-11-19T13:16:19;18.10;29.20
939;DHT22;456;53.584;9.968;2023-11-19T13:18:44;18.00;29.20
939;DHT22;456;53.584;9.968;2023-11-19T13:21:10;18.00;29.30
939;DHT22;456;53.584;9.968;2023-11-19T13:23:35;18.00;29.30
939;DHT22;456;53.584;9.968;2023-11-19T13:26:01;18.00;29.30
939;DHT22;456;53.584;9.968;2023-11-19T13:28:27;18.00;29.30
939;DHT22;456;53.584;9.968;2023-11-19T13:30:53;18.00;29.30
939;DHT22;456;53.584;9.968;2023-11-19T13:33:18;18.00;29.30
939;DHT22;456;53.584;9.968;2023-11-19T13:35:44;18.00;29.30
939;DHT22;456;53.584;9.968;2023-11-19T13:38:10;18.00;29.40
939;DHT22;456;53.584;9.968;2023-11-19T13:40:35;18.00;29.40
939;DHT22;456;53.584;9.968;2023-11-19T13:43:01;18.00;29.40
939;DHT22;456;53.584;9.968;2023-11-19T13:45:26;18.10;29.40
939;DHT22;456;53.584;9.968;2023-11-19T13:47:53;18.10;29.40
939;DHT22;456;53.584;9.968;2023-11-19T13:50:18;18.10;29.50
939;DHT22;456;53.584;9.968;2023-11-19T13:52:44;18.10;29.40
939;DHT22;456;53.584;9.968;2023-11-19T13:55:12;18.10;29.40
939;DHT22;456;53.584;9.968;2023-11-19T13:57:39;18.10;29.50
939;DHT22;456;53.584;9.968;2023-11-19T14:00:06;18.10;29.50
939;DHT22;456;53.584;9.968;2023-11-19T14:02:33;18.10;29.50
939;DHT22;456;53.584;9.968;2023-11-19T14:04:59;18.10;29.50
939;DHT22;456;53.584;9.968;2023-11-19T14:07:24;18.10;29.50
939;DHT22;456;53.584;9.968;2023-11-19T14:09:50;18.10;29.50
939;DHT22;456;53.584;9.968;2023-11-19T14:12:15;18.10;29.50
939;DHT22;456;53.584;9.968;2023-11-19T14:14:41;18.10;29.50
939;DHT22;456;53.584;9.968;2023-11-19T14:17:07;18.10;29.50
939;DHT22;456;53.584;9.968;2023-11-19T14:19:33;18.10;29.50
939;DHT22;456;53.584;9.968;2023-11-19T14:21:59;18.10;29.40
939;DHT22;456;53.584;9.968;2023-11-19T14:24:25;18.10;29.50
939;DHT22;456;53.584;9.968;2023-11-19T14:26:51;18.10;29.40
939;DHT22;456;53.584;9.968;2023-11-19T14:29:17;18.10;29.60
939;DHT22;456;53.584;9.968;2023-11-19T14:31:43;18.00;29.60
939;DHT22;456;53.584;9.968;2023-11-19T14:34:08;18.00;29.70
939;DHT22;456;53.584;9.968;2023-11-19T14:36:34;18.00;29.80
939;DHT22;456;53.584;9.968;2023-11-19T14:39:00;18.00;29.70
939;DHT22;456;53.584;9.968;2023-11-19T14:41:26;18.00;29.70
939;DHT22;456;53.584;9.968;2023-11-19T14:43:51;18.00;29.70
939;DHT22;456;53.584;9.968;2023-11-19T14:46:17;18.00;29.60
939;DHT22;456;53.584;9.968;2023-11-19T14:48:43;18.00;29.60
939;DHT22;456;53.584;9.968;2023-11-19T14:51:09;18.00;29.60
939;DHT22;456;53.584;9.968;2023-11-19T14:53:34;18.10;29.70
939;DHT22;456;53.584;9.968;2023-11-19T14:56:00;18.00;29.60
939;DHT22;456;53.584;9.968;2023-11-19T14:58:26;18.10;29.80
939;DHT22;456;53.584;9.968;2023-11-19T15:00:52;18.10;29.80
939;DHT22;456;53.584;9.968;2023-11-19T15:03:18;18.10;29.90
939;DHT22;456;53.584;9.968;2023-11-19T15:05:47;18.10;29.90
939;DHT22;456;53.584;9.968;2023-11-19T15:08:13;18.10;29.90
939;DHT22;456;53.584;9.968;2023-11-19T15:10:42;18.20;30.00
939;DHT22;456;53.584;9.968;2023-11-19T15:13:08;18.20;30.00
939;DHT22;456;53.584;9.968;2023-11-19T15:15:34;18.20;30.10
939;DHT22;456;53.584;9.968;2023-11-19T15:18:00;18.20;30.10
939;DHT22;456;53.584;9.968;2023-11-19T15:20:25;18.20;30.40
939;DHT22;456;53.584;9.968;2023-11-19T15:22:58;18.20;30.50
939;DHT22;456;53.584;9.968;2023-11-19T15:25:23;18.30;31.30
939;DHT22;456;53.584;9.968;2023-11-19T15:27:49;18.30;32.30
939;DHT22;456;53.584;9.968;2023-11-19T15:30:15;18.40;32.40
939;DHT22;456;53.584;9.968;2023-11-19T15:32:44;18.40;32.30
939;DHT22;456;53.584;9.968;2023-11-19T15:35:11;18.40;32.30
939;DHT22;456;53.584;9.968;2023-11-19T15:37:37;18.40;32.40
939;DHT22;456;53.584;9.968;2023-11-19T15:40:08;18.50;32.50
939;DHT22;456;53.584;9.968;2023-11-19T15:42:35;18.40;32.30
939;DHT22;456;53.584;9.968;2023-11-19T15:45:01;18.40;32.50
939;DHT22;456;53.584;9.968;2023-11-19T15:47:30;18.40;32.60
939;DHT22;456;53.584;9.968;2023-11-19T15:49:56;18.50;34.30
939;DHT22;456;53.584;9.968;2023-11-19T15:52:22;18.60;36.20
939;DHT22;456;53.584;9.968;2023-11-19T15:54:47;18.70;37.80
939;DHT22;456;53.584;9.968;2023-11-19T15:57:13;18.80;38.40
939;DHT22;456;53.584;9.968;2023-11-19T15:59:39;18.80;38.20
939;DHT22;456;53.584;9.968;2023-11-19T16:02:04;18.90;37.80
939;DHT22;456;53.584;9.968;2023-11-19T16:04:30;18.90;37.50
939;DHT22;456;53.584;9.968;2023-11-19T16:06:56;18.90;37.80
939;DHT22;456;53.584;9.968;2023-11-19T16:09:21;18.90;37.50
939;DHT22;456;53.584;9.968;2023-11-19T16:11:48;18.80;37.40
939;DHT22;456;53.584;9.968;2023-11-19T16:14:14;18.80;37.40
939;DHT22;456;53.584;9.968;2023-11-19T16:16:40;18.80;37.30
939;DHT22;456;53.584;9.968;2023-11-19T16:19:06;18.80;37.10
939;DHT22;456;53.584;9.968;2023-11-19T16:21:33;18.80;37.10
939;DHT22;456;53.584;9.968;2023-11-19T16:24:02;18.80;37.00
939;DHT22;456;53.584;9.968;2023-11-19T16:26:28;18.70;36.70
939;DHT22;456;53.584;9.968;2023-11-19T16:28:56;18.70;36.60
939;DHT22;456;53.584;9.968;2023-11-19T16:31:22;18.70;36.60
939;DHT22;456;53.584;9.968;2023-11-19T16:33:48;18.70;36.40
939;DHT22;456;53.584;9.968;2023-11-19T16:36:14;18.70;36.50
939;DHT22;456;53.584;9.968;2023-11-19T16:38:40;18.70;36.30